createdAt,value
2022-12-22T00:01:52.769Z,14.13
2022-12-22T00:04:38.056Z,13.75
2022-12-22T00:07:23.550Z,13.85
2022-12-22T00:10:08.778Z,13.23
2022-12-22T00:12:55.377Z,12.45
2022-12-22T00:15:40.605Z,12.73
2022-12-22T00:18:31.824Z,10.27
2022-12-22T00:21:17.241Z,11.25
2022-12-22T00:24:02.779Z,11.23
2022-12-22T00:26:48.954Z,11.93
2022-12-22T00:29:36.840Z,10.73
2022-12-22T00:32:23.507Z,11.18
2022-12-22T00:35:09.704Z,11.30
2022-12-22T00:37:56.614Z,10.60
2022-12-22T00:40:46.596Z,10.63
2022-12-22T00:43:31.819Z,11.63
2022-12-22T00:46:19.903Z,11.55
2022-12-22T00:49:05.752Z,10.93
2022-12-22T00:51:51.613Z,10.57
2022-12-22T00:54:38.138Z,10.88
2022-12-22T00:57:23.383Z,10.90
2022-12-22T01:00:09.352Z,11.07
2022-12-22T01:02:55.931Z,11.48
2022-12-22T01:05:41.205Z,10.98
2022-12-22T01:08:29.030Z,11.15
2022-12-22T01:11:14.224Z,11.80
2022-12-22T01:13:59.682Z,11.60
2022-12-22T01:16:45.145Z,12.32
2022-12-22T01:19:31.759Z,12.38
2022-12-22T01:22:17.202Z,11.90
2022-12-22T01:25:03.976Z,12.20
2022-12-22T01:27:49.328Z,13.27
2022-12-22T01:30:35.540Z,13.18
2022-12-22T01:33:20.803Z,12.70
2022-12-22T01:36:08.169Z,12.85
2022-12-22T01:38:53.595Z,12.88
2022-12-22T01:41:40.357Z,13.30
2022-12-22T01:44:32.448Z,13.68
2022-12-22T01:47:48.889Z,13.90
2022-12-22T01:50:36.223Z,13.55
2022-12-22T01:53:25.573Z,12.57
2022-12-22T01:56:12.073Z,12.40
2022-12-22T01:59:00.913Z,13.02
2022-12-22T02:01:48.176Z,13.40
2022-12-22T02:04:34.634Z,12.52
2022-12-22T02:07:28.673Z,11.38
2022-12-22T02:10:26.692Z,11.90
2022-12-22T02:13:18.050Z,12.70
2022-12-22T02:16:08.759Z,11.90
2022-12-22T02:19:00.984Z,11.70
2022-12-22T02:21:49.099Z,11.93
2022-12-22T02:24:45.078Z,12.02
2022-12-22T02:27:32.729Z,11.23
2022-12-22T02:30:22.085Z,11.05
2022-12-22T02:33:09.918Z,10.60
2022-12-22T02:36:02.148Z,11.80
2022-12-22T02:38:59.450Z,9.75
2022-12-22T02:41:52.522Z,9.80
2022-12-22T02:44:46.777Z,9.27
2022-12-22T02:47:38.842Z,8.98
2022-12-22T02:50:32.025Z,9.07
2022-12-22T02:53:18.903Z,9.73
2022-12-22T02:56:04.868Z,10.05
2022-12-22T02:58:51.541Z,9.65
2022-12-22T03:01:38.246Z,9.05
2022-12-22T03:04:23.595Z,9.23
2022-12-22T03:07:08.856Z,9.35
2022-12-22T03:09:57.419Z,10.55
2022-12-22T03:12:42.643Z,9.85
2022-12-22T03:15:28.513Z,9.82
2022-12-22T03:18:19.985Z,9.80
2022-12-22T03:21:05.260Z,9.75
2022-12-22T03:23:50.806Z,10.13
2022-12-22T03:26:18.697Z,9.68
2022-12-22T03:28:46.535Z,10.15
2022-12-22T03:31:14.329Z,9.15
2022-12-22T03:33:43.547Z,10.05
2022-12-22T03:36:11.682Z,9.13
2022-12-22T03:38:39.419Z,9.82
2022-12-22T03:41:07.165Z,9.52
2022-12-22T03:43:52.361Z,10.27
2022-12-22T03:46:32.300Z,9.48
2022-12-22T03:49:12.187Z,9.85
2022-12-22T03:51:42.980Z,9.70
2022-12-22T03:54:11.891Z,9.93
2022-12-22T03:56:39.960Z,11.05
2022-12-22T03:59:08.256Z,11.25
2022-12-22T04:01:40.689Z,10.35
2022-12-22T04:04:10.190Z,9.98
2022-12-22T04:06:37.902Z,10.80
2022-12-22T04:09:05.681Z,10.88
2022-12-22T04:11:51.005Z,10.20
2022-12-22T04:14:18.724Z,9.80
2022-12-22T04:16:46.529Z,10.07
2022-12-22T04:19:16.080Z,10.52
2022-12-22T04:21:44.435Z,9.77
2022-12-22T04:24:12.720Z,9.90
2022-12-22T04:26:41.043Z,9.77
2022-12-22T04:29:08.669Z,10.02
2022-12-22T04:31:36.535Z,9.65
2022-12-22T04:34:04.222Z,9.65
2022-12-22T04:36:33.133Z,9.95
2022-12-22T04:39:00.836Z,9.68
2022-12-22T04:41:28.484Z,9.18
2022-12-22T04:43:56.092Z,8.88
2022-12-22T04:46:23.828Z,8.45
2022-12-22T04:48:56.185Z,8.70
2022-12-22T04:51:27.377Z,8.02
2022-12-22T04:53:56.369Z,8.40
2022-12-22T04:56:24.081Z,9.23
2022-12-22T04:58:51.631Z,9.02
2022-12-22T05:01:19.999Z,8.32
2022-12-22T05:03:48.323Z,8.55
2022-12-22T05:06:16.471Z,7.95
2022-12-22T05:08:44.091Z,7.80
2022-12-22T05:11:13.147Z,8.50
2022-12-22T05:13:40.813Z,8.13
2022-12-22T05:16:10.888Z,8.93
2022-12-22T05:18:39.435Z,8.48
2022-12-22T05:21:09.192Z,9.38
2022-12-22T05:23:36.933Z,9.45
2022-12-22T05:26:04.651Z,9.73
2022-12-22T05:28:33.616Z,9.38
2022-12-22T05:31:05.357Z,10.98
2022-12-22T05:33:34.829Z,10.13
2022-12-22T05:36:03.231Z,10.45
2022-12-22T05:38:30.836Z,10.77
2022-12-22T05:41:04.330Z,10.50
2022-12-22T05:43:34.969Z,10.40
2022-12-22T05:46:03.745Z,10.63
2022-12-22T05:48:37.478Z,11.30
2022-12-22T05:51:07.295Z,10.38
2022-12-22T05:53:35.012Z,10.57
2022-12-22T05:56:02.722Z,11.35
2022-12-22T05:58:30.530Z,11.25
2022-12-22T06:01:00.617Z,11.13
2022-12-22T06:03:30.091Z,11.68
2022-12-22T06:05:58.436Z,12.07
2022-12-22T06:08:27.122Z,12.05
2022-12-22T06:10:55.992Z,10.85
2022-12-22T06:13:26.757Z,12.43
2022-12-22T06:15:58.006Z,12.10
2022-12-22T06:18:31.157Z,12.90
2022-12-22T06:21:04.861Z,13.38
2022-12-22T06:23:37.137Z,11.57
2022-12-22T06:26:10.214Z,12.02
2022-12-22T06:28:39.977Z,12.50
2022-12-22T06:31:09.199Z,14.55
2022-12-22T06:33:43.424Z,13.68
2022-12-22T06:36:13.030Z,13.73
2022-12-22T06:38:40.795Z,12.35
2022-12-22T06:41:08.719Z,14.07
2022-12-22T06:43:35.555Z,14.30
2022-12-22T06:46:06.260Z,14.25
2022-12-22T06:48:34.284Z,14.65
2022-12-22T06:51:12.575Z,14.50
2022-12-22T06:53:42.480Z,14.95
2022-12-22T06:56:10.357Z,14.75
2022-12-22T06:58:40.760Z,14.10
2022-12-22T07:01:11.413Z,14.00
2022-12-22T07:03:41.147Z,14.18
2022-12-22T07:06:12.860Z,13.55
2022-12-22T07:08:41.647Z,14.30
2022-12-22T07:11:12.678Z,14.32
2022-12-22T07:13:40.473Z,14.45
2022-12-22T07:16:10.000Z,13.32
2022-12-22T07:18:40.120Z,13.63
2022-12-22T07:21:10.503Z,14.80
2022-12-22T07:23:39.407Z,14.52
2022-12-22T07:26:10.747Z,15.23
2022-12-22T07:28:40.686Z,15.57
2022-12-22T07:31:16.825Z,14.88
2022-12-22T07:33:46.523Z,16.30
2022-12-22T07:36:23.102Z,14.52
2022-12-22T07:38:53.969Z,14.77
2022-12-22T07:41:39.329Z,14.90
2022-12-22T07:44:08.510Z,16.05
2022-12-22T07:46:40.538Z,15.20
2022-12-22T07:49:26.368Z,15.55
2022-12-22T07:51:59.171Z,15.55
2022-12-22T07:54:30.498Z,16.13
2022-12-22T07:56:58.367Z,14.90
2022-12-22T07:59:26.138Z,14.73
2022-12-22T08:01:53.989Z,13.55
2022-12-22T08:04:22.647Z,14.00
2022-12-22T08:06:50.501Z,13.85
2022-12-22T08:09:21.589Z,13.80
2022-12-22T08:11:50.238Z,12.70
2022-12-22T08:14:18.094Z,12.45
2022-12-22T08:17:00.896Z,12.40
2022-12-22T08:19:28.621Z,12.43
2022-12-22T08:21:56.468Z,12.48
2022-12-22T08:24:26.230Z,11.27
2022-12-22T08:26:58.844Z,11.25
2022-12-22T08:29:30.500Z,11.35
2022-12-22T08:31:58.551Z,11.23
2022-12-22T08:34:26.364Z,11.23
2022-12-22T08:36:57.637Z,10.10
2022-12-22T08:39:29.678Z,11.00
2022-12-22T08:41:57.516Z,11.13
2022-12-22T08:44:27.282Z,10.70
2022-12-22T08:46:58.915Z,11.05
2022-12-22T08:49:27.641Z,11.52
2022-12-22T08:51:55.402Z,10.73
2022-12-22T08:54:23.054Z,11.65
2022-12-22T08:56:52.935Z,11.90
2022-12-22T08:59:20.703Z,11.80
2022-12-22T09:01:50.702Z,11.98
2022-12-22T09:04:21.080Z,11.30
2022-12-22T09:06:48.900Z,11.07
2022-12-22T09:09:17.771Z,10.52
2022-12-22T09:11:45.511Z,9.73
2022-12-22T09:14:15.070Z,10.10
2022-12-22T09:16:42.911Z,9.88
2022-12-22T09:19:10.979Z,10.57
2022-12-22T09:21:38.749Z,10.20
2022-12-22T09:24:08.147Z,11.80
2022-12-22T09:26:36.212Z,11.90
2022-12-22T09:29:04.517Z,11.40
2022-12-22T09:31:33.996Z,11.02
2022-12-22T09:34:02.075Z,11.98
2022-12-22T09:36:32.879Z,12.07
2022-12-22T09:39:04.879Z,12.13
2022-12-22T09:41:36.123Z,12.63
2022-12-22T09:44:05.835Z,12.88
2022-12-22T09:46:37.631Z,12.05
2022-12-22T09:49:07.141Z,14.68
2022-12-22T09:51:42.506Z,15.07
2022-12-22T09:54:12.677Z,15.35
2022-12-22T09:56:40.335Z,15.75
2022-12-22T09:59:11.610Z,14.80
2022-12-22T10:01:58.971Z,14.80
2022-12-22T10:04:39.627Z,15.52
2022-12-22T10:07:20.140Z,16.90
2022-12-22T10:09:51.316Z,16.42
2022-12-22T10:12:21.935Z,17.80
2022-12-22T10:14:51.643Z,16.15
2022-12-22T10:17:24.063Z,18.27
2022-12-22T10:19:54.334Z,17.83
2022-12-22T10:22:29.824Z,17.27
2022-12-22T10:24:58.164Z,16.65
2022-12-22T10:27:30.132Z,15.98
2022-12-22T10:30:19.923Z,17.33
2022-12-22T10:33:03.550Z,14.82
2022-12-22T10:35:48.232Z,15.15
2022-12-22T10:38:21.212Z,14.43
2022-12-22T10:40:56.648Z,14.60
2022-12-22T10:43:32.271Z,14.10
2022-12-22T10:46:00.605Z,16.00
2022-12-22T10:48:35.806Z,13.32
2022-12-22T10:51:06.612Z,14.27
2022-12-22T10:53:42.957Z,12.63
2022-12-22T10:56:22.228Z,13.75
2022-12-22T10:58:52.957Z,13.95
2022-12-22T11:01:26.785Z,12.75
2022-12-22T11:04:17.087Z,12.77
2022-12-22T11:06:45.519Z,12.15
2022-12-22T11:09:33.335Z,12.13
2022-12-22T11:12:11.713Z,13.00
2022-12-22T11:14:54.134Z,12.93
2022-12-22T11:17:38.416Z,12.68
2022-12-22T11:20:27.504Z,13.73
2022-12-22T11:23:03.207Z,13.93
2022-12-22T11:25:42.660Z,13.82
2022-12-22T11:28:37.690Z,13.02
2022-12-22T11:31:18.473Z,12.02
2022-12-22T11:33:57.652Z,13.45
2022-12-22T11:36:34.507Z,13.13
2022-12-22T11:39:08.092Z,12.50
2022-12-22T11:41:56.298Z,13.07
2022-12-22T11:44:38.508Z,12.82
2022-12-22T11:47:16.361Z,12.55
2022-12-22T11:50:58.554Z,12.00
2022-12-22T11:53:07.259Z,13.50
2022-12-22T11:55:38.302Z,12.63
2022-12-22T11:58:23.525Z,12.88
2022-12-22T12:01:20.507Z,12.43
2022-12-22T12:04:02.634Z,13.13
2022-12-22T12:06:53.745Z,12.07
2022-12-22T12:09:36.006Z,12.80
2022-12-22T12:12:12.517Z,13.40
2022-12-22T12:14:48.676Z,12.20
2022-12-22T12:17:25.377Z,11.85
2022-12-22T12:20:09.537Z,11.27
2022-12-22T12:22:48.014Z,13.02
2022-12-22T12:25:29.232Z,14.20
2022-12-22T12:28:16.307Z,11.98
2022-12-22T12:30:52.434Z,11.52
2022-12-22T12:33:25.255Z,11.52
2022-12-22T12:36:00.133Z,12.15
2022-12-22T12:41:31.981Z,12.40
2022-12-22T12:44:00.902Z,12.10
2022-12-22T12:46:57.053Z,11.70
2022-12-22T12:49:56.852Z,11.65
2022-12-22T12:53:07.087Z,11.50
2022-12-22T12:55:51.694Z,12.40
2022-12-22T12:58:52.863Z,10.98
2022-12-22T13:01:55.398Z,11.98
2022-12-22T13:05:01.816Z,12.02
2022-12-22T13:08:06.925Z,11.48
2022-12-22T13:10:37.040Z,11.70
2022-12-22T13:13:05.126Z,10.35
2022-12-22T13:15:35.699Z,9.27
2022-12-22T13:18:05.047Z,10.07
2022-12-22T13:20:36.031Z,8.90
2022-12-22T13:23:10.739Z,9.07
2022-12-22T13:25:46.256Z,9.55
2022-12-22T13:28:17.271Z,9.52
2022-12-22T13:30:49.404Z,8.50
2022-12-22T13:33:20.515Z,8.75
2022-12-22T13:35:53.398Z,8.43
2022-12-22T13:38:30.177Z,9.02
2022-12-22T13:41:00.413Z,9.93
2022-12-22T13:43:45.069Z,9.95
2022-12-22T13:46:14.131Z,9.77
2022-12-22T13:48:45.523Z,9.38
2022-12-22T13:51:19.947Z,9.50
2022-12-22T13:54:08.958Z,8.13
2022-12-22T13:56:40.530Z,7.50
2022-12-22T13:59:24.895Z,7.80
2022-12-22T14:01:59.162Z,7.63
2022-12-22T14:04:27.628Z,8.60
2022-12-22T14:06:55.974Z,6.85
2022-12-22T14:09:25.658Z,7.30
2022-12-22T14:11:58.641Z,8.02
2022-12-22T14:14:29.578Z,7.22
2022-12-22T14:17:00.397Z,7.18
2022-12-22T14:19:32.067Z,7.15
2022-12-22T14:22:05.367Z,7.50
2022-12-22T14:24:38.713Z,8.48
2022-12-22T14:27:07.709Z,7.88
2022-12-22T14:29:35.581Z,8.27
2022-12-22T14:32:04.898Z,9.52
2022-12-22T14:34:34.357Z,9.60
2022-12-22T14:37:03.367Z,8.38
2022-12-22T14:39:32.785Z,7.57
2022-12-22T14:42:03.002Z,9.00
2022-12-22T14:44:34.247Z,8.05
2022-12-22T14:47:15.864Z,7.75
2022-12-22T14:49:50.104Z,7.60
2022-12-22T14:52:23.327Z,8.48
2022-12-22T14:54:53.022Z,8.85
2022-12-22T14:57:28.475Z,9.05
2022-12-22T15:00:01.493Z,9.75
2022-12-22T15:02:38.760Z,8.13
2022-12-22T15:05:26.917Z,8.73
2022-12-22T15:08:05.956Z,9.52
2022-12-22T15:10:39.111Z,9.40
2022-12-22T15:13:11.822Z,10.05
2022-12-22T15:15:39.442Z,9.43
2022-12-22T15:18:14.747Z,8.88
2022-12-22T15:20:42.390Z,9.23
2022-12-22T15:23:14.020Z,8.77
2022-12-22T15:25:44.410Z,8.95
2022-12-22T15:28:12.193Z,7.13
2022-12-22T15:30:45.610Z,8.52
2022-12-22T15:33:17.121Z,9.27
2022-12-22T15:35:45.983Z,11.05
2022-12-22T15:38:15.611Z,10.90
2022-12-22T15:40:43.381Z,10.40
2022-12-22T15:43:28.729Z,10.23
2022-12-22T15:45:59.903Z,10.70
2022-12-22T15:48:32.836Z,8.30
2022-12-22T15:51:03.336Z,7.80
2022-12-22T15:53:32.731Z,8.70
2022-12-22T15:56:00.480Z,9.55
2022-12-22T15:58:32.902Z,8.90
2022-12-22T16:01:00.608Z,8.73
2022-12-22T16:03:29.707Z,10.32
2022-12-22T16:05:57.972Z,9.32
2022-12-22T16:08:30.647Z,9.52
2022-12-22T16:10:58.717Z,9.50
2022-12-22T16:13:28.784Z,11.00
2022-12-22T16:15:57.426Z,9.32
2022-12-22T16:18:27.079Z,9.38
2022-12-22T16:20:57.300Z,9.15
2022-12-22T16:23:26.693Z,8.85
2022-12-22T16:26:01.337Z,9.80
2022-12-22T16:28:29.574Z,8.50
2022-12-22T16:30:57.608Z,8.63
2022-12-22T16:33:25.291Z,8.50
2022-12-22T16:35:53.172Z,7.95
2022-12-22T16:38:22.198Z,7.85
2022-12-22T16:40:52.489Z,9.20
2022-12-22T16:46:14.949Z,8.43
2022-12-22T16:48:45.385Z,10.05
2022-12-22T16:51:20.060Z,10.00
2022-12-22T16:53:49.121Z,8.38
2022-12-22T16:56:20.115Z,7.93
2022-12-22T16:58:48.245Z,7.38
2022-12-22T17:01:22.999Z,8.73
2022-12-22T17:03:50.881Z,8.50
2022-12-22T17:06:18.859Z,7.95
2022-12-22T17:08:47.451Z,8.20
2022-12-22T17:11:22.083Z,7.00
2022-12-22T17:13:51.255Z,6.47
2022-12-22T17:16:21.555Z,6.53
2022-12-22T17:18:50.015Z,6.15
2022-12-22T17:21:19.370Z,6.55
2022-12-22T17:23:50.588Z,6.90
2022-12-22T17:26:22.189Z,7.30
2022-12-22T17:28:50.715Z,7.15
2022-12-22T17:31:20.334Z,7.88
2022-12-22T17:33:48.259Z,8.10
2022-12-22T17:36:31.347Z,8.25
2022-12-22T17:38:59.534Z,8.13
2022-12-22T17:41:28.560Z,6.55
2022-12-22T17:43:56.379Z,7.65
2022-12-22T17:46:24.222Z,8.35
2022-12-22T17:48:51.986Z,7.97
2022-12-22T17:51:23.660Z,8.40
2022-12-22T17:53:52.320Z,8.68
2022-12-22T17:56:22.296Z,8.40
2022-12-22T17:58:51.487Z,9.00
2022-12-22T18:01:25.085Z,8.55
2022-12-22T18:03:53.462Z,9.13
2022-12-22T18:06:23.861Z,10.23
2022-12-22T18:08:52.924Z,10.43
2022-12-22T18:11:20.656Z,9.90
2022-12-22T18:13:48.543Z,11.70
2022-12-22T18:16:20.607Z,12.35
2022-12-22T18:18:48.739Z,10.68
2022-12-22T18:21:17.997Z,11.20
2022-12-22T18:23:49.945Z,10.43
2022-12-22T18:26:22.021Z,9.70
2022-12-22T18:28:50.271Z,9.73
2022-12-22T18:31:20.130Z,9.50
2022-12-22T18:33:47.772Z,9.00
2022-12-22T18:36:20.704Z,8.60
2022-12-22T18:38:49.425Z,8.00
2022-12-22T18:41:21.872Z,7.47
2022-12-22T18:43:49.621Z,8.90
2022-12-22T18:46:18.852Z,9.40
2022-12-22T18:48:47.465Z,7.72
2022-12-22T18:51:19.848Z,8.70
2022-12-22T18:53:47.630Z,8.75
2022-12-22T18:56:15.516Z,10.18
2022-12-22T18:58:43.654Z,11.00
2022-12-22T19:01:21.456Z,10.57
2022-12-22T19:03:50.346Z,11.70
2022-12-22T19:06:20.458Z,10.15
2022-12-22T19:08:48.260Z,9.57
2022-12-22T19:11:19.219Z,9.32
2022-12-22T19:13:48.874Z,10.75
2022-12-22T19:16:20.022Z,10.32
2022-12-22T19:18:49.224Z,12.20
2022-12-22T19:21:19.592Z,10.30
2022-12-22T19:23:47.650Z,11.20
2022-12-22T19:26:22.920Z,10.07
2022-12-22T19:28:53.622Z,9.98
2022-12-22T19:31:24.423Z,9.85
2022-12-22T19:33:53.982Z,10.05
2022-12-22T19:36:25.593Z,9.57
2022-12-22T19:39:02.690Z,8.82
2022-12-22T19:41:39.279Z,9.60
2022-12-22T19:44:07.372Z,9.13
2022-12-22T19:46:36.433Z,9.75
2022-12-22T19:49:05.452Z,9.27
2022-12-22T19:51:33.270Z,9.77
2022-12-22T19:54:00.833Z,8.93
2022-12-22T19:56:30.757Z,8.00
2022-12-22T19:59:00.808Z,8.65
2022-12-22T20:01:28.689Z,10.27
2022-12-22T20:03:56.907Z,8.50
2022-12-22T20:06:25.821Z,8.30
2022-12-22T20:08:54.140Z,8.35
2022-12-22T20:11:21.828Z,8.75
2022-12-22T20:13:50.065Z,8.30
2022-12-22T20:16:18.154Z,9.05
2022-12-22T20:18:46.439Z,8.75
2022-12-22T20:21:18.773Z,9.40
2022-12-22T20:23:48.215Z,10.57
2022-12-22T20:26:31.159Z,10.57
2022-12-22T20:29:05.462Z,10.93
2022-12-22T20:31:33.375Z,11.23
2022-12-22T20:34:01.230Z,9.32
2022-12-22T20:36:31.948Z,10.65
2022-12-22T20:39:02.091Z,9.15
2022-12-22T20:41:29.736Z,9.38
2022-12-22T20:43:57.439Z,10.88
2022-12-22T20:46:27.459Z,9.40
2022-12-22T20:48:56.764Z,9.82
2022-12-22T20:51:26.740Z,9.93
2022-12-22T20:53:55.031Z,10.68
2022-12-22T20:56:28.820Z,10.02
2022-12-22T20:58:57.316Z,10.40
2022-12-22T21:01:25.124Z,10.30
2022-12-22T21:03:53.087Z,11.63
2022-12-22T21:06:27.081Z,11.13
2022-12-22T21:08:56.837Z,10.05
2022-12-22T21:11:26.563Z,11.23
2022-12-22T21:13:55.069Z,10.68
2022-12-22T21:16:25.998Z,11.52
2022-12-22T21:18:55.306Z,11.88
2022-12-22T21:21:23.643Z,12.80
2022-12-22T21:23:51.614Z,12.40
2022-12-22T21:26:23.905Z,11.75
2022-12-22T21:28:56.746Z,11.65
2022-12-22T21:31:24.508Z,10.95
2022-12-22T21:33:52.262Z,12.63
2022-12-22T21:36:24.037Z,13.98
2022-12-22T21:38:53.906Z,12.60
2022-12-22T21:41:43.614Z,12.27
2022-12-22T21:44:13.353Z,13.55
2022-12-22T21:46:42.521Z,12.57
2022-12-22T21:49:19.556Z,12.20
2022-12-22T21:51:47.276Z,13.27
2022-12-22T21:54:15.332Z,12.15
2022-12-22T21:56:42.934Z,12.38
2022-12-22T21:59:12.086Z,12.02
2022-12-22T22:01:41.737Z,12.27
2022-12-22T22:04:10.052Z,11.93
2022-12-22T22:06:37.989Z,12.75
2022-12-22T22:09:07.197Z,13.45
2022-12-22T22:11:56.868Z,12.10
2022-12-22T22:14:26.111Z,12.90
2022-12-22T22:16:53.938Z,12.40
2022-12-22T22:19:21.649Z,12.60
2022-12-22T22:21:49.462Z,12.52
2022-12-22T22:24:17.212Z,11.77
2022-12-22T22:26:46.214Z,12.23
2022-12-22T22:29:14.135Z,12.38
2022-12-22T22:31:44.116Z,12.38
2022-12-22T22:34:12.136Z,12.77
2022-12-22T22:36:39.782Z,12.43
2022-12-22T22:39:07.433Z,11.98
2022-12-22T22:41:41.011Z,13.15
2022-12-22T22:44:10.863Z,12.85
2022-12-22T22:46:38.545Z,12.27
2022-12-22T22:49:07.902Z,13.10
2022-12-22T22:51:35.526Z,13.45
2022-12-22T22:54:03.455Z,13.45
2022-12-22T22:56:31.176Z,13.95
2022-12-22T22:58:59.953Z,12.88
2022-12-22T23:01:28.492Z,12.38
2022-12-22T23:03:56.327Z,12.55
2022-12-22T23:06:25.317Z,13.73
2022-12-22T23:08:54.134Z,12.48
2022-12-22T23:11:21.814Z,13.35
2022-12-22T23:13:49.891Z,13.23
2022-12-22T23:16:21.198Z,12.50
2022-12-22T23:18:49.464Z,14.55
2022-12-22T23:21:17.155Z,13.13
2022-12-22T23:23:46.176Z,13.50
2022-12-22T23:26:13.897Z,13.45
2022-12-22T23:28:41.601Z,14.02
2022-12-22T23:31:12.478Z,15.20
2022-12-22T23:33:40.134Z,13.68
2022-12-22T23:36:08.634Z,13.38
2022-12-22T23:38:36.789Z,14.40
2022-12-22T23:41:07.583Z,14.48
2022-12-22T23:43:35.548Z,13.15
2022-12-22T23:46:07.284Z,14.82
2022-12-22T23:48:35.752Z,14.15
2022-12-22T23:51:03.577Z,15.48
2022-12-22T23:53:31.366Z,15.00
2022-12-22T23:55:59.236Z,14.25
2022-12-22T23:58:28.401Z,16.40
